Time;durP1;ratioP1;P1;durP2;ratioP2;P2;SDS_P1;SDS_P2;PMS_P1;PMS_P2;Temp;Humidity;BMP_temperature;BMP_pressure;BME280_temperature;BME280_humidity;BME280_pressure;Samples;Min_cycle;Max_cycle;Signal;HPM_P1;HPM_P2
2022/05/16 00:00:39;;;;;;;2.27;0.93;;;19.70;1.00;;;;;;5137989;27;20440;-53
2022/05/16 00:03:08;;;;;;;1.00;0.70;;;19.70;1.00;;;;;;5137506;27;20487;-54
2022/05/16 00:05:35;;;;;;;0.60;0.53;;;19.60;1.00;;;;;;5137992;27;20586;-53
2022/05/16 00:08:02;;;;;;;0.80;0.60;;;19.60;1.00;;;;;;5137625;27;20581;-55
2022/05/16 00:10:30;;;;;;;1.53;0.50;;;19.50;1.00;;;;;;5137815;27;20475;-55
2022/05/16 00:12:59;;;;;;;1.00;0.50;;;19.40;1.00;;;;;;5137817;27;20550;-56
2022/05/16 00:15:26;;;;;;;0.60;0.47;;;19.30;1.00;;;;;;5137740;27;20500;-51
2022/05/16 00:17:53;;;;;;;0.87;0.50;;;19.30;1.00;;;;;;5138045;27;20455;-53
2022/05/16 00:20:21;;;;;;;0.73;0.60;;;19.40;1.00;;;;;;5137648;27;20511;-56
2022/05/16 00:22:47;;;;;;;0.70;0.50;;;19.30;1.00;;;;;;5137321;27;20463;-56
2022/05/16 00:25:16;;;;;;;0.73;0.50;;;19.30;1.00;;;;;;5137708;27;20574;-56
2022/05/16 00:27:44;;;;;;;0.80;0.50;;;19.30;1.00;;;;;;5137571;27;20458;-56
2022/05/16 00:30:14;;;;;;;0.70;0.50;;;19.30;1.00;;;;;;5136440;27;20535;-50
2022/05/16 00:32:41;;;;;;;0.80;0.60;;;19.30;1.00;;;;;;5136060;27;20810;-55
2022/05/16 00:35:10;;;;;;;1.10;0.60;;;19.30;1.00;;;;;;5137255;27;20444;-52
2022/05/16 00:37:37;;;;;;;1.20;0.60;;;19.30;1.00;;;;;;5136888;27;20496;-55
2022/05/16 00:40:05;;;;;;;0.87;0.57;;;19.30;1.00;;;;;;5136662;27;20490;-54
2022/05/16 00:42:32;;;;;;;0.83;0.60;;;19.30;1.00;;;;;;5136690;27;20547;-56
2022/05/16 00:45:00;;;;;;;1.03;0.60;;;19.20;1.00;;;;;;5136958;27;20493;-54
2022/05/16 00:47:27;;;;;;;0.83;0.60;;;19.20;1.00;;;;;;5137371;27;20629;-51
2022/05/16 00:49:55;;;;;;;0.70;0.50;;;19.20;1.00;;;;;;5137051;27;20746;-50
2022/05/16 00:52:26;;;;;;;1.57;0.60;;;19.10;1.00;;;;;;5135335;27;20855;-52
2022/05/16 00:54:56;;;;;;;0.70;0.60;;;19.20;1.00;;;;;;5137120;27;20479;-56
2022/05/16 00:57:32;;;;;;;1.47;0.60;;;19.20;1.00;;;;;;5137681;27;20539;-55
2022/05/16 01:00:06;;;;;;;0.60;0.40;;;19.20;1.00;;;;;;5137506;27;20482;-51
2022/05/16 01:05:19;;;;;;;1.47;0.50;;;19.20;1.00;;;;;;5141076;27;20411;-55
2022/05/16 01:07:47;;;;;;;0.80;0.50;;;19.10;1.00;;;;;;5140811;27;20553;-55
2022/05/16 01:10:20;;;;;;;0.80;0.50;;;19.10;1.00;;;;;;5140782;27;20526;-53
2022/05/16 01:12:49;;;;;;;0.97;0.60;;;19.00;1.00;;;;;;5140121;27;20490;-57
2022/05/16 01:15:31;;;;;;;1.70;0.50;;;19.00;1.00;;;;;;5138384;27;20487;-53
2022/05/16 01:17:58;;;;;;;2.80;0.60;;;18.90;1.00;;;;;;5138925;27;20895;-57
2022/05/16 01:20:40;;;;;;;0.83;0.60;;;18.90;1.00;;;;;;5138065;27;20571;-54
2022/05/16 01:23:09;;;;;;;0.77;0.50;;;18.80;1.00;;;;;;5138392;27;20498;-54
2022/05/16 01:25:36;;;;;;;0.80;0.50;;;18.80;1.00;;;;;;5135651;27;20583;-54
2022/05/16 01:28:04;;;;;;;0.67;0.50;;;18.80;1.00;;;;;;5139518;27;20489;-55
2022/05/16 01:30:34;;;;;;;1.20;0.60;;;18.70;1.00;;;;;;5139851;27;20936;-54
2022/05/16 01:33:01;;;;;;;0.90;0.50;;;18.70;1.00;;;;;;5139952;27;20540;-56
2022/05/16 01:35:31;;;;;;;0.73;0.50;;;18.70;1.00;;;;;;5137961;27;20562;-56
2022/05/16 01:40:44;;;;;;;0.80;0.50;;;18.50;1.00;;;;;;5140149;27;20537;-52
2022/05/16 01:43:12;;;;;;;0.80;0.60;;;18.50;1.00;;;;;;5140523;27;20475;-54
2022/05/16 01:45:42;;;;;;;3.10;0.67;;;18.50;1.00;;;;;;5136595;27;20847;-53
2022/05/16 01:48:10;;;;;;;0.67;0.50;;;18.50;1.00;;;;;;5138827;27;20458;-55
2022/05/16 01:50:37;;;;;;;1.00;0.60;;;18.40;1.00;;;;;;5139525;27;20443;-53
2022/05/16 01:53:04;;;;;;;2.40;0.60;;;18.40;1.00;;;;;;5135484;27;21702;-56
2022/05/16 01:55:31;;;;;;;1.27;0.50;;;18.40;1.00;;;;;;5118888;28;20539;-55
2022/05/16 01:57:59;;;;;;;0.70;0.50;;;18.40;1.00;;;;;;5118346;28;20487;-54
2022/05/16 02:00:27;;;;;;;1.53;0.53;;;18.40;1.00;;;;;;5119355;28;20444;-52
2022/05/16 02:02:54;;;;;;;0.90;0.50;;;18.30;1.00;;;;;;5119203;28;20480;-54
2022/05/16 02:05:23;;;;;;;0.80;0.60;;;18.30;1.00;;;;;;5118570;28;20848;-51
2022/05/16 02:07:51;;;;;;;3.30;0.53;;;18.30;1.00;;;;;;5118989;28;20555;-52
2022/05/16 02:10:20;;;;;;;0.90;0.60;;;18.30;1.00;;;;;;5119497;28;20452;-55
2022/05/16 02:12:47;;;;;;;0.70;0.50;;;18.20;1.00;;;;;;5119640;28;20491;-56
2022/05/16 02:15:17;;;;;;;1.10;0.70;;;18.10;1.00;;;;;;5118926;28;20445;-56
2022/05/16 02:17:45;;;;;;;1.77;0.60;;;18.20;1.00;;;;;;5119395;28;20452;-58
2022/05/16 02:20:13;;;;;;;1.00;0.60;;;18.20;1.00;;;;;;5119541;28;20793;-58
2022/05/16 02:25:24;;;;;;;2.23;0.70;;;18.10;1.00;;;;;;5118852;28;20893;-58
2022/05/16 02:27:52;;;;;;;0.77;0.70;;;18.10;1.00;;;;;;5119642;28;20484;-57
2022/05/16 02:30:22;;;;;;;0.67;0.57;;;18.10;1.00;;;;;;5119416;28;20448;-59
2022/05/16 02:32:50;;;;;;;1.80;0.50;;;18.10;1.00;;;;;;5118566;28;20505;-59
2022/05/16 02:35:17;;;;;;;0.80;0.50;;;18.20;1.00;;;;;;5118138;28;20531;-59
2022/05/16 02:37:44;;;;;;;2.17;0.60;;;18.20;1.00;;;;;;5117497;28;20448;-59
2022/05/16 02:40:11;;;;;;;2.30;0.50;;;18.30;1.00;;;;;;5117356;28;20449;-58
2022/05/16 02:42:38;;;;;;;1.47;0.50;;;18.30;1.00;;;;;;5117435;28;20456;-59
2022/05/16 02:45:06;;;;;;;0.77;0.50;;;18.30;1.00;;;;;;5118379;28;20528;-58
2022/05/16 02:47:35;;;;;;;0.70;0.50;;;18.30;1.00;;;;;;5118917;28;20839;-58
2022/05/16 02:50:02;;;;;;;1.00;0.70;;;18.30;1.00;;;;;;5119025;28;20445;-59
2022/05/16 02:52:29;;;;;;;1.90;0.50;;;18.30;1.00;;;;;;5119173;28;20547;-59
2022/05/16 02:54:56;;;;;;;0.83;0.50;;;18.30;1.00;;;;;;5118960;28;20923;-59
2022/05/16 02:57:23;;;;;;;1.00;0.50;;;18.20;1.00;;;;;;5118848;28;20539;-57
2022/05/16 02:59:50;;;;;;;0.70;0.60;;;18.30;1.00;;;;;;5118675;28;20691;-57
2022/05/16 03:02:17;;;;;;;1.50;0.50;;;18.20;1.00;;;;;;5118410;28;20536;-57
2022/05/16 03:04:45;;;;;;;1.37;0.50;;;18.20;1.00;;;;;;5118271;28;20903;-56
2022/05/16 03:07:12;;;;;;;0.90;0.50;;;18.30;1.00;;;;;;5118198;28;20523;-58
2022/05/16 03:09:39;;;;;;;0.80;0.60;;;18.30;1.00;;;;;;5118342;28;20484;-58
2022/05/16 03:12:07;;;;;;;0.93;0.50;;;18.30;1.00;;;;;;5118052;28;20445;-59
2022/05/16 03:14:35;;;;;;;3.03;0.60;;;18.30;1.00;;;;;;5118420;28;20444;-58
2022/05/16 03:17:02;;;;;;;0.90;0.60;;;18.30;1.00;;;;;;5118215;28;20443;-58
2022/05/16 03:19:30;;;;;;;0.50;0.43;;;18.30;1.00;;;;;;5118096;28;20907;-59
2022/05/16 03:21:58;;;;;;;0.80;0.60;;;18.30;1.00;;;;;;5117749;28;20813;-58
2022/05/16 03:24:25;;;;;;;0.60;0.50;;;18.20;1.00;;;;;;5117943;28;20528;-59
2022/05/16 03:26:52;;;;;;;0.80;0.60;;;18.20;1.00;;;;;;5116449;28;20579;-59
2022/05/16 03:29:19;;;;;;;0.80;0.50;;;18.30;1.00;;;;;;5116841;28;20519;-57
2022/05/16 03:31:46;;;;;;;0.70;0.50;;;18.30;1.00;;;;;;5118231;28;20491;-57
2022/05/16 03:34:13;;;;;;;0.50;0.43;;;18.30;1.00;;;;;;5117986;28;20457;-57
2022/05/16 03:36:40;;;;;;;0.80;0.60;;;18.40;1.00;;;;;;5118264;28;20439;-61
2022/05/16 03:41:53;;;;;;;0.77;0.50;;;18.50;1.00;;;;;;5075723;28;20417;-57
2022/05/16 03:44:20;;;;;;;1.80;0.57;;;18.60;1.00;;;;;;5117885;28;20543;-57
2022/05/16 03:46:48;;;;;;;2.00;0.50;;;18.70;1.00;;;;;;5117806;28;20480;-56
2022/05/16 03:49:14;;;;;;;1.53;0.53;;;18.70;1.00;;;;;;5117559;28;20894;-57
2022/05/16 03:51:42;;;;;;;0.60;0.40;;;18.70;1.00;;;;;;5117457;28;20746;-57
2022/05/16 03:54:10;;;;;;;0.60;0.50;;;18.70;1.00;;;;;;5117736;28;20459;-57
2022/05/16 03:56:37;;;;;;;1.00;0.60;;;18.80;1.00;;;;;;5117703;28;20437;-55
2022/05/16 03:59:04;;;;;;;0.90;0.60;;;18.80;1.00;;;;;;5117473;28;20746;-57
2022/05/16 04:01:32;;;;;;;0.70;0.60;;;18.90;1.00;;;;;;5117711;28;20515;-58
2022/05/16 04:03:59;;;;;;;0.90;0.60;;;18.90;1.00;;;;;;5116568;28;20479;-57
2022/05/16 04:06:27;;;;;;;0.93;0.60;;;18.90;1.00;;;;;;5115883;28;20516;-57
2022/05/16 04:08:54;;;;;;;0.70;0.50;;;18.90;1.00;;;;;;5116205;28;20493;-57
2022/05/16 04:11:22;;;;;;;1.97;0.40;;;18.90;1.00;;;;;;5115488;28;20448;-57
2022/05/16 04:13:49;;;;;;;1.20;0.60;;;18.90;1.00;;;;;;5115551;28;20551;-58
2022/05/16 04:16:16;;;;;;;0.90;0.63;;;18.90;1.00;;;;;;5115370;28;20453;-58
2022/05/16 04:18:44;;;;;;;0.70;0.50;;;18.90;1.00;;;;;;5115192;28;20498;-58
2022/05/16 04:21:12;;;;;;;1.20;0.50;;;18.90;1.00;;;;;;5115134;28;20477;-57
2022/05/16 04:23:39;;;;;;;0.80;0.60;;;19.00;1.00;;;;;;5115396;28;20453;-58
2022/05/16 04:26:06;;;;;;;0.60;0.50;;;19.00;1.00;;;;;;5115964;28;20444;-58
2022/05/16 04:28:34;;;;;;;0.63;0.50;;;18.90;1.00;;;;;;5115937;28;20553;-57
2022/05/16 04:31:01;;;;;;;0.80;0.63;;;18.90;1.00;;;;;;5116692;28;20510;-58
2022/05/16 04:33:28;;;;;;;0.80;0.50;;;18.90;1.00;;;;;;5116815;28;20459;-59
2022/05/16 04:35:55;;;;;;;1.53;0.57;;;18.90;1.00;;;;;;5116252;28;20498;-57
2022/05/16 04:38:22;;;;;;;1.33;0.67;;;18.90;1.00;;;;;;5115052;28;20930;-56
2022/05/16 04:43:34;;;;;;;1.13;0.60;;;18.90;99.90;;;;;;5116194;28;20481;-57
2022/05/16 04:46:05;;;;;;;1.00;0.60;;;18.80;99.90;;;;;;5115182;28;20527;-58
2022/05/16 04:48:32;;;;;;;1.27;0.73;;;18.80;99.90;;;;;;5114955;28;20485;-58
2022/05/16 04:50:59;;;;;;;0.70;0.50;;;18.80;99.90;;;;;;5115807;28;20485;-58
2022/05/16 04:53:26;;;;;;;0.90;0.60;;;18.80;1.00;;;;;;5116588;28;20468;-58
2022/05/16 04:55:53;;;;;;;1.63;0.60;;;18.90;99.90;;;;;;5114927;28;20535;-59
2022/05/16 04:58:22;;;;;;;0.80;0.50;;;18.80;99.90;;;;;;5115708;28;20548;-59
2022/05/16 05:00:50;;;;;;;0.80;0.60;;;18.80;99.90;;;;;;5122661;27;20483;-59
2022/05/16 05:03:17;;;;;;;1.33;0.60;;;18.90;99.90;;;;;;5136576;27;20951;-58
2022/05/16 05:05:44;;;;;;;2.80;0.70;;;18.80;1.00;;;;;;5135110;27;20534;-59
2022/05/16 05:08:11;;;;;;;1.40;0.70;;;18.90;99.90;;;;;;5135200;28;20594;-58
2022/05/16 05:16:10;;;;;;;0.80;0.57;;;19.10;99.90;;;;;;5135218;27;20419;-58
2022/05/16 05:18:40;;;;;;;1.63;0.60;;;19.20;99.90;;;;;;5134531;27;20478;-60
2022/05/16 05:21:07;;;;;;;2.40;0.70;;;19.20;99.90;;;;;;5134644;27;20507;-59
2022/05/16 05:23:34;;;;;;;1.40;0.70;;;19.30;97.10;;;;;;5136365;28;20555;-58
2022/05/16 05:26:01;;;;;;;0.80;0.60;;;19.20;99.90;;;;;;5135077;28;20447;-59
2022/05/16 05:28:29;;;;;;;1.07;0.60;;;19.20;99.90;;;;;;5134643;28;20586;-58
2022/05/16 05:30:56;;;;;;;1.97;0.70;;;19.30;99.90;;;;;;5131781;28;20534;-59
2022/05/16 05:33:24;;;;;;;0.70;0.60;;;19.30;99.90;;;;;;5132222;28;20455;-58
2022/05/16 05:35:51;;;;;;;3.20;0.67;;;19.30;99.90;;;;;;5133428;28;20539;-58
2022/05/16 05:38:18;;;;;;;2.33;0.63;;;19.30;99.90;;;;;;5133838;28;20538;-57
2022/05/16 05:40:45;;;;;;;1.10;0.70;;;19.40;99.90;;;;;;5132721;28;20538;-59
2022/05/16 05:43:12;;;;;;;0.90;0.70;;;19.40;99.90;;;;;;5131785;28;20534;-57
2022/05/16 05:45:39;;;;;;;0.93;0.70;;;19.50;99.90;;;;;;5125395;28;20452;-58
2022/05/16 05:48:07;;;;;;;1.00;0.70;;;19.60;99.90;;;;;;5122132;27;20574;-58
2022/05/16 05:50:35;;;;;;;1.23;0.70;;;19.70;99.90;;;;;;5133728;27;20544;-58
2022/05/16 05:53:02;;;;;;;1.23;0.67;;;19.60;99.90;;;;;;5127025;27;20540;-57
2022/05/16 05:55:29;;;;;;;1.00;0.70;;;19.60;99.90;;;;;;5135435;27;20447;-58
2022/05/16 05:57:57;;;;;;;0.80;0.70;;;19.60;99.90;;;;;;5132350;27;20554;-59
2022/05/16 06:00:24;;;;;;;2.10;0.70;;;19.60;99.90;;;;;;5116645;27;20445;-54
2022/05/16 06:02:51;;;;;;;1.10;0.73;;;19.60;99.90;;;;;;5130597;27;20444;-55
2022/05/16 06:05:21;;;;;;;0.90;0.70;;;19.60;99.90;;;;;;5142347;27;20565;-53
2022/05/16 06:07:49;;;;;;;1.10;0.70;;;19.70;99.90;;;;;;5125121;27;20571;-55
2022/05/16 06:10:16;;;;;;;1.20;0.70;;;19.60;99.90;;;;;;5135750;27;21047;-55
2022/05/16 06:12:43;;;;;;;1.33;0.60;;;19.60;99.90;;;;;;5137009;27;20942;-54
2022/05/16 06:15:11;;;;;;;1.03;0.60;;;19.60;99.90;;;;;;5138202;27;20518;-53
2022/05/16 06:17:38;;;;;;;0.97;0.70;;;19.60;99.90;;;;;;5138233;27;20974;-52
2022/05/16 06:20:07;;;;;;;3.83;1.00;;;19.50;99.90;;;;;;5135274;27;20498;-54
2022/05/16 06:22:35;;;;;;;2.40;0.80;;;19.50;99.90;;;;;;5115873;28;20535;-54
2022/05/16 06:27:49;;;;;;;2.20;0.70;;;19.50;99.90;;;;;;5135613;27;20470;-53
2022/05/16 06:30:19;;;;;;;1.87;0.70;;;19.40;1.00;;;;;;5134054;27;20919;-56
2022/05/16 06:32:46;;;;;;;1.17;0.80;;;19.40;1.00;;;;;;5133825;27;20452;-51
2022/05/16 06:35:13;;;;;;;0.93;0.83;;;19.40;1.00;;;;;;5133746;27;20486;-52
2022/05/16 06:37:40;;;;;;;1.03;0.70;;;19.40;1.00;;;;;;5122613;27;20838;-53
2022/05/16 06:40:11;;;;;;;1.10;0.70;;;19.40;1.00;;;;;;5132785;27;20532;-54
2022/05/16 06:42:38;;;;;;;0.70;0.60;;;19.60;1.00;;;;;;5133877;27;20487;-53
2022/05/16 06:45:05;;;;;;;1.00;0.70;;;19.70;1.00;;;;;;5129700;27;20440;-54
2022/05/16 06:47:32;;;;;;;1.43;0.70;;;19.80;1.00;;;;;;5133432;27;20838;-49
2022/05/16 06:49:59;;;;;;;1.03;0.70;;;20.00;1.00;;;;;;5133740;27;20806;-51
2022/05/16 06:52:26;;;;;;;2.20;0.60;;;20.10;1.00;;;;;;5133203;27;20847;-49
2022/05/16 06:54:54;;;;;;;1.00;0.70;;;20.40;99.90;;;;;;5126948;27;20896;-52
2022/05/16 06:57:22;;;;;;;1.23;0.67;;;20.40;99.90;;;;;;5131588;27;20468;-52
2022/05/16 06:59:49;;;;;;;1.80;0.63;;;20.50;99.90;;;;;;5131864;27;20538;-50
2022/05/16 07:02:16;;;;;;;0.97;0.73;;;20.70;99.90;;;;;;5117584;27;20444;-53
2022/05/16 07:04:43;;;;;;;1.10;0.70;;;20.90;99.90;;;;;;5129807;27;20440;-55
2022/05/16 07:07:11;;;;;;;2.43;0.67;;;21.00;99.90;;;;;;5130141;27;21581;-49
2022/05/16 07:09:39;;;;;;;1.10;0.70;;;21.20;99.90;;;;;;5131855;27;20446;-55
2022/05/16 07:12:07;;;;;;;1.50;0.90;;;21.30;99.90;;;;;;5134821;27;20801;-54
2022/05/16 07:14:38;;;;;;;0.83;0.60;;;21.50;84.10;;;;;;5132923;27;20823;-55
2022/05/16 07:17:05;;;;;;;1.53;0.63;;;21.60;20.40;;;;;;5132935;27;20458;-51
2022/05/16 07:19:34;;;;;;;0.80;0.60;;;21.80;23.20;;;;;;5136181;27;21005;-57
2022/05/16 07:22:02;;;;;;;1.13;0.70;;;22.10;7.50;;;;;;5134349;27;20444;-57
2022/05/16 07:24:30;;;;;;;1.03;0.70;;;22.30;1.00;;;;;;5132961;27;20437;-55
2022/05/16 07:29:43;;;;;;;1.37;0.70;;;22.80;1.00;;;;;;5131063;27;20423;-52
2022/05/16 07:32:11;;;;;;;1.37;0.90;;;22.90;1.00;;;;;;5133530;27;20645;-55
2022/05/16 07:34:39;;;;;;;1.20;0.70;;;22.90;1.00;;;;;;5140039;27;20486;-54
2022/05/16 07:37:06;;;;;;;1.97;0.90;;;23.00;1.00;;;;;;5133728;27;20460;-55
2022/05/16 07:39:35;;;;;;;2.40;0.90;;;22.90;1.00;;;;;;5131380;27;20572;-56
2022/05/16 07:42:02;;;;;;;1.60;0.80;;;22.90;1.00;;;;;;5127585;27;20456;-55
2022/05/16 07:44:29;;;;;;;1.80;0.70;;;23.00;1.00;;;;;;5128860;27;20551;-54
2022/05/16 07:46:58;;;;;;;0.80;0.63;;;23.10;1.00;;;;;;5120248;27;20527;-55
2022/05/16 07:49:25;;;;;;;0.90;0.80;;;22.90;1.00;;;;;;5132788;27;20869;-54
2022/05/16 07:51:52;;;;;;;1.20;0.90;;;22.90;1.00;;;;;;5127514;27;21026;-56
2022/05/16 07:54:19;;;;;;;1.40;0.80;;;23.10;1.00;;;;;;5132895;27;20883;-54
2022/05/16 07:56:46;;;;;;;1.37;0.80;;;23.00;1.00;;;;;;5133841;27;20546;-56
2022/05/16 07:59:13;;;;;;;1.47;0.80;;;22.90;90.10;;;;;;5129133;27;21088;-53
2022/05/16 08:01:40;;;;;;;1.30;0.80;;;22.60;99.90;;;;;;5131314;27;20440;-55
2022/05/16 08:04:08;;;;;;;1.47;0.90;;;22.30;1.00;;;;;;5132250;27;20543;-55
2022/05/16 08:06:36;;;;;;;1.33;0.93;;;22.20;1.00;;;;;;5130400;27;20910;-54
2022/05/16 08:11:47;;;;;;;2.22;0.90;;;21.90;1.00;;;;;;5131444;27;20432;-52
2022/05/16 08:14:15;;;;;;;1.10;0.70;;;21.80;99.90;;;;;;5132563;27;20201;-55
2022/05/16 08:16:42;;;;;;;1.10;0.83;;;21.70;5.50;;;;;;5133040;27;20814;-55
2022/05/16 08:19:10;;;;;;;1.20;0.90;;;21.70;1.90;;;;;;5130820;27;20439;-53
2022/05/16 08:21:37;;;;;;;1.90;1.00;;;21.70;1.20;;;;;;5133834;27;20527;-54
2022/05/16 08:24:07;;;;;;;2.60;1.03;;;21.70;1.00;;;;;;5132580;27;20448;-54
2022/05/16 08:26:35;;;;;;;1.20;0.90;;;21.80;99.90;;;;;;5132043;27;20519;-51
2022/05/16 08:29:02;;;;;;;3.23;0.97;;;21.90;99.90;;;;;;5131014;27;20673;-52
2022/05/16 08:31:29;;;;;;;2.83;0.93;;;22.00;99.90;;;;;;5130746;27;20891;-54
2022/05/16 08:33:57;;;;;;;1.70;0.90;;;22.00;1.00;;;;;;5132748;27;20547;-55
2022/05/16 08:41:57;;;;;;;2.03;1.00;;;21.90;99.90;;;;;;5128510;27;20420;-54
2022/05/16 08:44:30;;;;;;;2.90;0.90;;;21.90;1.00;;;;;;5133962;27;21014;-55
2022/05/16 08:47:09;;;;;;;2.27;1.00;;;22.00;1.00;;;;;;5130572;27;20479;-54
2022/05/16 08:49:42;;;;;;;3.60;1.33;;;22.00;99.90;;;;;;5127416;27;20551;-55
2022/05/16 08:52:16;;;;;;;2.13;0.90;;;22.10;99.90;;;;;;5131833;27;20954;-56
2022/05/16 08:54:50;;;;;;;4.03;1.20;;;22.30;99.90;;;;;;5132768;27;20456;-56
2022/05/16 08:57:26;;;;;;;2.80;1.00;;;22.60;99.90;;;;;;5131562;27;20513;-56
2022/05/16 09:00:01;;;;;;;1.47;1.00;;;22.90;1.00;;;;;;5132776;27;20508;-56
2022/05/16 09:02:31;;;;;;;5.13;1.00;;;23.20;1.00;;;;;;5130653;28;20978;-54
2022/05/16 09:05:06;;;;;;;1.50;1.07;;;23.40;99.90;;;;;;5131715;27;20747;-56
2022/05/16 09:07:42;;;;;;;2.33;1.00;;;23.50;1.00;;;;;;5133858;27;20537;-55
2022/05/16 09:10:11;;;;;;;1.50;0.97;;;23.60;1.00;;;;;;5116133;28;20502;-54
2022/05/16 09:12:48;;;;;;;2.73;0.97;;;23.70;99.90;;;;;;5132338;28;20452;-56
2022/05/16 09:15:25;;;;;;;2.30;0.90;;;23.70;99.90;;;;;;5132623;28;20479;-55
2022/05/16 09:18:02;;;;;;;2.23;0.90;;;23.80;17.40;;;;;;5130882;28;20443;-55
2022/05/16 09:20:40;;;;;;;2.17;1.27;;;24.10;1.00;;;;;;5104736;28;20799;-56
2022/05/16 09:23:17;;;;;;;3.50;1.00;;;24.20;1.00;;;;;;5112418;28;20985;-57
2022/05/16 09:26:01;;;;;;;1.63;0.90;;;24.30;1.00;;;;;;5117095;28;20861;-55
2022/05/16 09:28:37;;;;;;;1.73;1.00;;;24.40;1.00;;;;;;5115566;27;20476;-56
2022/05/16 09:31:12;;;;;;;2.03;1.00;;;24.70;1.00;;;;;;5117718;28;20535;-56
2022/05/16 09:33:45;;;;;;;3.10;1.10;;;24.80;1.00;;;;;;5116734;28;20539;-58
2022/05/16 09:36:15;;;;;;;2.60;0.90;;;25.10;1.00;;;;;;5117441;28;20539;-56
2022/05/16 09:38:46;;;;;;;3.07;1.40;;;25.40;1.00;;;;;;5117644;28;20444;-56
2022/05/16 09:41:22;;;;;;;4.60;1.10;;;25.40;1.00;;;;;;5114887;28;20441;-55
2022/05/16 09:43:58;;;;;;;3.10;1.20;;;25.40;1.00;;;;;;5116776;28;20507;-57
2022/05/16 09:46:33;;;;;;;2.57;1.10;;;25.20;1.00;;;;;;5101818;28;20448;-56
2022/05/16 09:49:13;;;;;;;2.23;1.20;;;25.20;1.00;;;;;;5115731;28;20579;-56
2022/05/16 09:51:43;;;;;;;1.00;0.90;;;25.30;1.00;;;;;;5109778;28;20464;-57
2022/05/16 09:54:15;;;;;;;1.57;0.90;;;25.30;1.00;;;;;;5114174;28;20812;-55
2022/05/16 09:57:00;;;;;;;1.30;0.90;;;25.30;1.00;;;;;;5115168;28;20798;-56
2022/05/16 09:59:39;;;;;;;1.53;0.80;;;25.30;1.00;;;;;;5113396;28;20527;-57
2022/05/16 10:02:20;;;;;;;1.70;1.13;;;25.30;1.00;;;;;;5113095;27;20510;-58
2022/05/16 10:04:51;;;;;;;1.73;1.00;;;25.60;1.00;;;;;;5111336;27;20453;-57
2022/05/16 10:07:24;;;;;;;1.33;1.00;;;25.80;1.00;;;;;;5115182;27;20546;-57
2022/05/16 10:09:53;;;;;;;2.10;0.90;;;25.90;1.00;;;;;;5115948;28;20736;-57
2022/05/16 10:12:23;;;;;;;2.67;1.10;;;25.90;1.00;;;;;;5112158;27;20468;-57
2022/05/16 10:14:50;;;;;;;1.77;1.10;;;25.80;1.00;;;;;;5105168;28;20904;-57
2022/05/16 10:17:29;;;;;;;1.30;1.00;;;26.00;1.00;;;;;;5112748;28;21100;-59
2022/05/16 10:20:00;;;;;;;1.03;0.80;;;25.90;1.00;;;;;;5120065;27;20517;-59
2022/05/16 10:22:29;;;;;;;1.40;1.10;;;25.90;1.00;;;;;;5130490;27;20735;-56
2022/05/16 10:24:59;;;;;;;1.67;0.90;;;26.00;1.00;;;;;;5133049;27;20448;-57
2022/05/16 10:27:29;;;;;;;2.00;1.33;;;26.40;1.00;;;;;;5131236;27;20830;-55
2022/05/16 10:30:00;;;;;;;1.57;0.90;;;26.80;1.00;;;;;;5136287;27;20486;-58
2022/05/16 10:35:23;;;;;;;1.80;0.80;;;26.40;1.00;;;;;;5137370;27;20799;-57
2022/05/16 10:37:54;;;;;;;1.30;0.90;;;25.90;1.00;;;;;;5135483;27;20468;-56
2022/05/16 10:40:30;;;;;;;1.43;1.00;;;25.80;1.00;;;;;;5132635;27;20960;-57
2022/05/16 10:43:21;;;;;;;1.43;0.70;;;25.80;1.00;;;;;;5135049;27;20527;-57
2022/05/16 10:45:53;;;;;;;2.87;0.90;;;25.70;1.00;;;;;;5138247;27;20471;-56
2022/05/16 10:48:29;;;;;;;3.20;0.93;;;25.50;1.00;;;;;;5131038;27;20460;-54
2022/05/16 10:51:01;;;;;;;2.07;0.83;;;25.60;1.00;;;;;;5139794;27;20450;-53
2022/05/16 10:53:32;;;;;;;1.50;0.80;;;25.40;1.00;;;;;;5116899;27;20505;-55
2022/05/16 10:56:06;;;;;;;3.30;0.80;;;25.30;1.00;;;;;;5130054;27;20841;-52
2022/05/16 10:58:46;;;;;;;0.90;0.60;;;25.20;1.00;;;;;;5135405;27;20447;-52
2022/05/16 11:01:18;;;;;;;1.40;0.70;;;25.20;1.00;;;;;;5141042;27;20756;-55
2022/05/16 11:04:03;;;;;;;0.90;0.63;;;25.10;1.00;;;;;;5134987;27;20456;-55
2022/05/16 11:06:48;;;;;;;1.30;0.60;;;25.20;1.00;;;;;;5130446;27;20471;-53
2022/05/16 11:09:24;;;;;;;2.10;0.70;;;25.20;1.00;;;;;;5126247;27;20686;-54
2022/05/16 11:11:59;;;;;;;2.53;0.60;;;25.40;1.00;;;;;;5123191;27;20960;-55
2022/05/16 11:14:36;;;;;;;0.93;0.60;;;25.10;1.00;;;;;;5137897;27;20476;-53
2022/05/16 11:17:10;;;;;;;1.17;0.70;;;25.00;1.00;;;;;;5127007;27;20470;-55
2022/05/16 11:19:46;;;;;;;1.33;0.80;;;24.90;1.00;;;;;;5131127;27;20483;-53
2022/05/16 11:22:15;;;;;;;0.80;0.60;;;24.80;1.00;;;;;;5130253;27;20908;-54
2022/05/16 11:24:52;;;;;;;2.60;0.60;;;24.50;1.00;;;;;;5133535;27;20546;-50
2022/05/16 11:27:30;;;;;;;0.80;0.60;;;24.40;1.00;;;;;;5136132;27;20475;-52
2022/05/16 11:30:05;;;;;;;1.87;0.60;;;24.30;1.00;;;;;;5136471;27;20483;-58
2022/05/16 11:33:01;;;;;;;1.00;0.60;;;24.10;1.00;;;;;;5129238;27;20483;-50
2022/05/16 11:35:36;;;;;;;1.20;0.40;;;24.00;1.00;;;;;;5129155;27;20467;-53
2022/05/16 11:38:14;;;;;;;1.20;0.60;;;23.80;1.00;;;;;;5129465;27;20451;-52
2022/05/16 11:40:51;;;;;;;0.90;0.50;;;23.70;1.00;;;;;;5125070;27;20988;-54
2022/05/16 11:43:25;;;;;;;1.43;0.33;;;23.60;1.00;;;;;;5126981;27;20459;-54
2022/05/16 11:46:28;;;;;;;1.30;0.40;;;23.50;1.00;;;;;;5125771;27;20478;-54
2022/05/16 11:49:12;;;;;;;1.00;0.30;;;23.40;1.00;;;;;;5111703;27;20918;-52
2022/05/16 11:51:52;;;;;;;1.30;0.47;;;23.30;1.00;;;;;;5129493;27;20526;-53
2022/05/16 11:54:24;;;;;;;0.67;0.40;;;23.30;1.00;;;;;;5135946;27;20467;-51
2022/05/16 12:02:51;;;;;;;0.70;0.30;;;23.00;1.00;;;;;;5101115;27;20482;-51
2022/05/16 12:05:38;;;;;;;0.70;0.30;;;22.80;1.00;;;;;;5131076;27;20454;-51
2022/05/16 12:08:17;;;;;;;0.93;0.40;;;22.60;1.00;;;;;;5133971;27;21110;-54
2022/05/16 12:10:58;;;;;;;0.70;0.33;;;22.40;1.00;;;;;;5131995;27;20479;-55
2022/05/16 12:13:28;;;;;;;0.90;0.33;;;22.10;25.90;;;;;;5130156;27;20462;-53
2022/05/16 12:16:19;;;;;;;1.00;0.30;;;21.70;1.00;;;;;;5134712;27;21064;-53
2022/05/16 12:18:48;;;;;;;1.00;0.40;;;21.50;99.90;;;;;;5135595;27;20560;-52
2022/05/16 12:21:27;;;;;;;3.97;1.63;;;21.20;1.00;;;;;;5113750;27;20959;-52
2022/05/16 12:23:58;;;;;;;2.10;0.60;;;21.00;99.90;;;;;;5130769;27;20483;-53
2022/05/16 12:26:49;;;;;;;0.77;0.40;;;20.60;1.00;;;;;;5135435;27;20447;-54
2022/05/16 12:29:20;;;;;;;0.57;0.40;;;20.50;1.00;;;;;;5134588;27;20591;-51
2022/05/16 12:31:53;;;;;;;0.60;0.40;;;20.10;1.00;;;;;;5130663;27;20487;-52
2022/05/16 12:34:43;;;;;;;0.80;0.80;;;19.90;1.00;;;;;;5125483;27;20457;-54
2022/05/16 12:37:13;;;;;;;1.27;0.50;;;19.70;1.00;;;;;;5123980;27;20559;-52
2022/05/16 12:39:46;;;;;;;0.60;0.40;;;19.80;1.00;;;;;;5123480;27;20555;-53
2022/05/16 12:42:36;;;;;;;1.10;0.40;;;19.80;1.00;;;;;;5116616;27;20555;-53
2022/05/16 12:45:17;;;;;;;3.00;0.50;;;19.60;1.00;;;;;;5126609;27;20480;-57
2022/05/16 12:48:21;;;;;;;1.33;0.70;;;19.20;31.60;;;;;;5131499;27;20431;-56
2022/05/16 12:51:00;;;;;;;1.20;0.40;;;19.10;83.40;;;;;;5133604;27;20487;-57
2022/05/16 12:54:07;;;;;;;1.83;0.50;;;19.10;81.00;;;;;;5133858;27;20539;-56
2022/05/16 12:56:43;;;;;;;2.17;0.40;;;19.00;99.90;;;;;;5132216;27;20487;-60
2022/05/16 12:59:18;;;;;;;1.10;0.40;;;19.10;99.90;;;;;;5131977;27;20486;-60
2022/05/16 13:01:50;;;;;;;1.77;0.40;;;19.00;95.30;;;;;;5132119;27;20813;-58
2022/05/16 13:04:42;;;;;;;0.63;0.30;;;19.00;96.50;;;;;;5132149;27;20744;-58
2022/05/16 13:07:14;;;;;;;0.70;0.40;;;19.10;79.10;;;;;;5134741;27;20894;-59
2022/05/16 13:09:57;;;;;;;1.27;0.40;;;19.20;99.90;;;;;;5132741;27;20582;-60
2022/05/16 13:12:46;;;;;;;2.27;0.40;;;19.40;99.90;;;;;;5133790;27;20946;-58
2022/05/16 13:15:24;;;;;;;1.40;0.57;;;19.60;99.90;;;;;;5114448;28;20517;-60
2022/05/16 13:17:54;;;;;;;1.30;0.40;;;20.00;99.90;;;;;;5112609;28;20448;-59
2022/05/16 13:20:31;;;;;;;1.33;0.50;;;20.40;91.30;;;;;;5114124;28;20572;-60
2022/05/16 13:22:59;;;;;;;0.70;0.60;;;20.70;35.70;;;;;;5113071;28;20531;-60
2022/05/16 13:25:27;;;;;;;0.93;0.30;;;20.90;1.00;;;;;;5112886;28;20495;-59
2022/05/16 13:30:43;;;;;;;1.40;0.37;;;21.30;1.00;;;;;;5113040;28;20471;-60
2022/05/16 13:33:23;;;;;;;0.70;0.40;;;21.40;1.00;;;;;;5119751;27;20559;-61
2022/05/16 13:35:51;;;;;;;0.60;0.40;;;21.50;1.00;;;;;;5130203;27;20866;-59
2022/05/16 13:38:18;;;;;;;2.20;0.50;;;21.20;1.00;;;;;;5118785;27;20459;-60
2022/05/16 13:40:48;;;;;;;1.83;0.50;;;21.10;1.00;;;;;;5132761;27;20571;-60
2022/05/16 13:43:16;;;;;;;2.30;0.40;;;21.20;1.00;;;;;;5131767;27;20451;-60
2022/05/16 13:45:44;;;;;;;0.87;0.40;;;21.30;1.00;;;;;;5132850;27;20988;-60
2022/05/16 13:48:15;;;;;;;0.80;0.40;;;21.50;1.00;;;;;;5130069;28;20532;-60
2022/05/16 13:50:43;;;;;;;0.60;0.40;;;21.50;1.00;;;;;;5131483;28;20472;-61
2022/05/16 13:53:15;;;;;;;3.20;0.60;;;21.70;1.00;;;;;;5132383;28;20444;-60
2022/05/16 13:55:45;;;;;;;2.80;0.50;;;22.00;99.90;;;;;;5129456;28;20948;-59
2022/05/16 13:58:14;;;;;;;1.43;0.40;;;22.40;99.90;;;;;;5126563;27;21059;-56